Time;durP1;ratioP1;P1;durP2;ratioP2;P2;SDS_P1;SDS_P2;PMS_P1;PMS_P2;Temp;Humidity;BMP_temperature;BMP_pressure;BME280_temperature;BME280_humidity;BME280_pressure;Samples;Min_cycle;Max_cycle;Signal;HPM_P1;HPM_P2
2023/05/31 00:00:19;;;;;;;;;;;;;;;15.51;38.91;98487.31;5152881;27;20341;-63
2023/05/31 00:02:47;;;;;;;;;;;;;;;15.73;38.14;98477.25;5153292;27;20313;-64
2023/05/31 00:05:15;;;;;;;;;;;;;;;15.85;38.29;98480.88;5150445;27;19927;-63
2023/05/31 00:07:43;;;;;;;;;;;;;;;15.81;38.09;98481.88;5134221;27;20306;-63
2023/05/31 00:10:11;;;;;;;;;;;;;;;15.55;38.59;98480.03;5154171;27;19919;-64
2023/05/31 00:12:40;;;;;;;;;;;;;;;15.67;38.64;98480.19;5152465;27;19973;-64
2023/05/31 00:15:08;;;;;;;;;;;;;;;15.61;38.32;98478.75;5132026;27;19955;-63
2023/05/31 00:17:36;;;;;;;;;;;;;;;15.69;38.18;98472.44;5130036;27;19984;-63
2023/05/31 00:20:07;;;;;;;;;;;;;;;15.35;38.80;98467.91;5126462;27;20014;-63
2023/05/31 00:22:35;;;;;;;;;;;;;;;15.44;38.79;98467.84;5144237;27;20313;-64
2023/05/31 00:25:06;;;;;;;;;;;;;;;15.40;38.50;98469.66;5143360;27;20009;-64
2023/05/31 00:27:34;;;;;;;;;;;;;;;15.31;38.48;98466.16;5146181;27;20010;-63
2023/05/31 00:30:03;;;;;;;;;;;;;;;15.44;38.50;98465.13;5133072;27;19937;-63
2023/05/31 00:32:31;;;;;;;;;;;;;;;15.45;38.25;98467.53;5152470;27;19980;-64
2023/05/31 00:34:59;;;;;;;;;;;;;;;15.14;39.01;98462.34;5150309;27;19919;-63
2023/05/31 00:37:26;;;;;;;;;;;;;;;15.27;38.89;98459.72;5126173;27;19958;-63
2023/05/31 00:39:54;;;;;;;;;;;;;;;15.30;38.69;98462.63;5121890;27;19968;-68
2023/05/31 00:42:22;;;;;;;;;;;;;;;15.25;38.93;98457.31;5124763;27;19923;-63
2023/05/31 00:44:50;;;;;;;;;;;;;;;15.16;39.46;98460.09;5133419;27;19980;-64
2023/05/31 00:47:19;;;;;;;;;;;;;;;15.30;39.27;98453.59;5133851;27;19923;-63
2023/05/31 00:49:47;;;;;;;;;;;;;;;15.08;39.65;98447.25;5142503;27;20275;-64
2023/05/31 00:52:17;;;;;;;;;;;;;;;15.11;39.07;98446.56;5137370;27;19926;-64
2023/05/31 00:54:45;;;;;;;;;;;;;;;15.02;39.63;98448.56;5135846;27;20431;-64
2023/05/31 00:57:36;;;;;;;;;;;;;;;14.82;39.71;98446.53;5131905;27;20352;-64
2023/05/31 01:00:56;;;;;;;;;;;;;;;14.97;39.53;98451.47;5137852;27;20404;-63
2023/05/31 01:03:38;;;;;;;;;;;;;;;14.89;39.67;98444.09;5135869;27;19923;-63
2023/05/31 01:06:09;;;;;;;;;;;;;;;14.80;40.11;98441.34;5118244;27;19919;-63
2023/05/31 01:08:51;;;;;;;;;;;;;;;14.64;40.04;98437.53;5129620;27;19930;-63
2023/05/31 01:11:33;;;;;;;;;;;;;;;14.73;39.92;98440.25;5147836;27;20363;-63
2023/05/31 01:14:16;;;;;;;;;;;;;;;14.83;39.80;98442.66;5129586;27;19923;-63
2023/05/31 01:21:05;;;;;;;;;;;;;;;14.45;40.72;98439.81;5079954;28;19962;-69
2023/05/31 01:24:36;;;;;;;;;;;;;;;14.61;40.54;98443.69;5065800;28;19920;-64
2023/05/31 01:27:12;;;;;;;;;;;;;;;14.75;40.18;98448.94;5050135;28;20048;-68
2023/05/31 01:30:56;;;;;;;;;;;;;;;14.17;41.40;98451.09;5011873;28;19926;-63
2023/05/31 01:33:47;;;;;;;;;;;;;;;14.38;41.03;98448.47;5004097;28;20015;-63
2023/05/31 01:36:19;;;;;;;;;;;;;;;14.28;41.10;98452.38;5028160;28;20342;-63
2023/05/31 01:41:40;;;;;;;;;;;;;;;14.37;41.14;98444.94;5056381;28;19927;-66
2023/05/31 01:44:42;;;;;;;;;;;;;;;14.38;41.17;98451.22;5097224;28;20424;-63
2023/05/31 01:51:28;;;;;;;;;;;;;;;14.37;40.95;98455.06;5013746;28;19968;-63
2023/05/31 01:57:12;;;;;;;;;;;;;;;14.32;41.30;98463.44;5001113;28;20023;-63
2023/05/31 01:59:48;;;;;;;;;;;;;;;14.08;41.70;98459.28;5024028;28;19966;-63
2023/05/31 02:06:20;;;;;;;;;;;;;;;14.07;41.76;98468.59;5054405;28;19920;-63
2023/05/31 02:09:16;;;;;;;;;;;;;;;13.89;42.27;98461.50;5048674;28;19928;-62
2023/05/31 02:16:10;;;;;;;;;;;;;;;13.83;42.41;98457.31;5065039;28;19925;-63
2023/05/31 02:18:45;;;;;;;;;;;;;;;13.68;42.75;98460.50;5071738;28;19970;-63
2023/05/31 02:24:41;;;;;;;;;;;;;;;13.76;42.37;98456.97;5112825;28;19919;-64
2023/05/31 02:27:15;;;;;;;;;;;;;;;13.66;42.63;98458.09;5115732;28;20014;-64
2023/05/31 02:30:22;;;;;;;;;;;;;;;13.86;41.99;98452.03;5050127;28;19927;-65
2023/05/31 02:33:33;;;;;;;;;;;;;;;13.82;42.04;98450.25;5110841;27;19923;-64
2023/05/31 02:36:18;;;;;;;;;;;;;;;13.86;42.24;98448.50;5110151;28;20402;-65
2023/05/31 02:39:18;;;;;;;;;;;;;;;13.68;42.66;98449.56;5123978;28;20295;-63
2023/05/31 02:42:11;;;;;;;;;;;;;;;13.94;42.23;98449.59;5131552;28;20018;-64
2023/05/31 02:45:06;;;;;;;;;;;;;;;13.87;42.48;98450.09;5116567;28;19927;-64
2023/05/31 02:47:49;;;;;;;;;;;;;;;13.79;42.30;98456.34;5121601;28;20380;-64
2023/05/31 02:50:59;;;;;;;;;;;;;;;13.76;42.36;98451.53;5122894;28;19931;-64
2023/05/31 02:54:18;;;;;;;;;;;;;;;13.84;42.24;98465.19;5073230;28;19959;-66
2023/05/31 02:57:25;;;;;;;;;;;;;;;13.83;42.31;98452.66;5109360;27;20048;-64
2023/05/31 03:04:23;;;;;;;;;;;;;;;13.72;42.52;98445.09;5059976;27;19959;-63
2023/05/31 03:06:57;;;;;;;;;;;;;;;13.65;42.74;98447.50;5125853;27;19935;-63
2023/05/31 03:09:28;;;;;;;;;;;;;;;13.75;42.41;98447.19;5114310;27;19934;-64
2023/05/31 03:11:56;;;;;;;;;;;;;;;13.89;42.29;98442.38;5121713;27;19923;-67
2023/05/31 03:14:39;;;;;;;;;;;;;;;14.00;41.84;98451.06;5131549;27;19919;-64
2023/05/31 03:17:25;;;;;;;;;;;;;;;13.82;42.33;98452.97;5127356;27;19924;-64
2023/05/31 03:20:09;;;;;;;;;;;;;;;13.76;42.37;98451.53;5130753;27;20018;-64
2023/05/31 03:23:11;;;;;;;;;;;;;;;13.67;43.15;98453.44;5135288;27;19926;-63
2023/05/31 03:30:14;;;;;;;;;;;;;;;13.95;42.23;98452.00;5069729;28;19925;-64
2023/05/31 03:33:12;;;;;;;;;;;;;;;;;;;;;
2023/05/31 03:36:03;;;;;;;;;;;;;;;13.66;43.11;98457.28;5060861;27;19919;-63
2023/05/31 03:38:44;;;;;;;;;;;;;;;13.54;43.16;98461.44;5129377;27;20413;-63
2023/05/31 03:50:28;;;;;;;;;;;;;;;13.72;43.37;98466.94;5120674;27;20026;-63
2023/05/31 03:52:59;;;;;;;;;;;;;;;13.68;43.29;98471.41;5120227;27;19951;-64
2023/05/31 03:55:55;;;;;;;;;;;;;;;13.76;43.20;98462.44;5144597;27;19919;-63
2023/05/31 03:59:09;;;;;;;;;;;;;;;13.54;43.69;98466.09;5119546;27;19923;-65
2023/05/31 04:01:40;;;;;;;;;;;;;;;13.66;43.32;98470.94;5127158;27;19931;-63
2023/05/31 04:04:26;;;;;;;;;;;;;;;13.15;44.14;98467.66;5122037;27;20037;-63
2023/05/31 04:06:59;;;;;;;;;;;;;;;13.57;43.54;98460.78;5129383;27;19987;-64
2023/05/31 04:09:39;;;;;;;;;;;;;;;13.40;43.89;98479.03;5146996;27;20407;-65
2023/05/31 04:15:27;;;;;;;;;;;;;;;13.39;43.80;98475.50;5121296;27;19919;-64
2023/05/31 04:21:46;;;;;;;;;;;;;;;13.37;44.11;98477.75;5039899;28;20005;-64
2023/05/31 04:24:32;;;;;;;;;;;;;;;13.29;44.81;98479.31;5078366;28;19932;-64
2023/05/31 04:27:20;;;;;;;;;;;;;;;13.34;44.41;98486.56;5073907;28;19944;-63
2023/05/31 04:29:51;;;;;;;;;;;;;;;13.50;44.13;98484.22;5072612;28;19924;-65
2023/05/31 04:32:52;;;;;;;;;;;;;;;13.60;43.88;98482.00;5075426;28;19924;-64
2023/05/31 04:35:33;;;;;;;;;;;;;;;13.41;44.68;98486.09;5072834;28;19932;-63
2023/05/31 04:38:05;;;;;;;;;;;;;;;13.45;44.56;98485.16;5077442;28;20405;-63
2023/05/31 04:40:36;;;;;;;;;;;;;;;13.63;44.87;98480.56;5078766;28;19942;-65
2023/05/31 04:43:18;;;;;;;;;;;;;;;13.55;44.63;98489.53;5062962;28;19932;-66
2023/05/31 04:45:47;;;;;;;;;;;;;;;13.59;44.35;98480.41;5064504;28;19920;-65
2023/05/31 04:49:42;;;;;;;;;;;;;;;13.63;44.36;98481.38;5076175;28;20280;-65
2023/05/31 04:52:28;;;;;;;;;;;;;;;13.84;44.68;98480.75;5104896;27;20366;-66
2023/05/31 04:55:06;;;;;;;;;;;;;;;13.81;44.44;98475.94;5126137;27;19920;-65
2023/05/31 05:01:45;;;;;;;;;;;;;;;14.15;43.90;98489.63;5040735;28;20003;-65
2023/05/31 05:04:33;;;;;;;;;;;;;;;13.99;45.25;98487.69;5045967;28;19971;-65
2023/05/31 05:07:10;;;;;;;;;;;;;;;13.88;44.50;98493.47;5029046;28;19921;-66
2023/05/31 05:09:44;;;;;;;;;;;;;;;13.99;44.28;98506.81;5029185;28;19921;-65
2023/05/31 05:12:19;;;;;;;;;;;;;;;14.33;43.79;98498.66;5024184;28;20286;-65
2023/05/31 05:14:56;;;;;;;;;;;;;;;14.46;43.38;98496.09;5032191;28;19921;-65
2023/05/31 05:17:51;;;;;;;;;;;;;;;14.45;43.64;98499.94;5045540;28;19928;-65
2023/05/31 05:20:22;;;;;;;;;;;;;;;14.55;43.30;98502.41;5034784;28;19920;-64
2023/05/31 05:22:56;;;;;;;;;;;;;;;14.33;43.62;98498.66;5030784;28;19921;-65
2023/05/31 05:25:42;;;;;;;;;;;;;;;14.54;43.73;98504.31;5036232;28;19921;-64
2023/05/31 05:38:17;;;;;;;;;;;;;;;14.57;44.38;98511.88;5005359;28;19976;-65
2023/05/31 05:40:47;;;;;;;;;;;;;;;15.03;44.18;98520.50;5008269;28;19957;-64
2023/05/31 05:44:10;;;;;;;;;;;;;;;15.01;43.01;98518.06;5005796;28;19933;-65
2023/05/31 05:47:22;;;;;;;;;;;;;;;15.26;42.66;98521.09;5000748;28;19925;-66
2023/05/31 05:49:57;;;;;;;;;;;;;;;15.33;42.11;98521.38;4989196;28;19921;-65
2023/05/31 05:59:56;;;;;;;;;;;;;;;15.51;41.65;98528.41;5103385;28;20521;-65
2023/05/31 06:02:42;;;;;;;;;;;;;;;15.35;41.73;98527.34;5026554;28;19921;-65
2023/05/31 06:05:10;;;;;;;;;;;;;;;15.35;42.02;98527.34;5039509;28;19924;-64
2023/05/31 06:07:44;;;;;;;;;;;;;;;15.43;41.83;98521.81;5049997;28;19927;-64
2023/05/31 06:10:40;;;;;;;;;;;;;;;15.35;42.15;98521.88;5045910;28;19925;-64
2023/05/31 06:13:13;;;;;;;;;;;;;;;15.37;41.70;98519.59;5046878;28;20016;-64
2023/05/31 06:15:48;;;;;;;;;;;;;;;15.54;41.91;98529.66;5047289;28;20354;-64
2023/05/31 06:18:16;;;;;;;;;;;;;;;15.77;41.36;98527.53;5051570;28;19924;-64
2023/05/31 06:20:53;;;;;;;;;;;;;;;15.76;41.24;98525.88;4953589;28;19932;-65
2023/05/31 06:23:42;;;;;;;;;;;;;;;15.95;40.83;98529.00;5063057;28;19925;-64
2023/05/31 06:26:13;;;;;;;;;;;;;;;16.08;40.84;98519.72;5047991;28;19925;-65
2023/05/31 06:28:45;;;;;;;;;;;;;;;16.02;40.75;98523.81;5045113;28;19931;-64
2023/05/31 06:31:35;;;;;;;;;;;;;;;16.20;40.32;98519.84;5063347;28;19920;-66
2023/05/31 06:35:04;;;;;;;;;;;;;;;16.35;40.50;98523.09;5064567;28;20010;-65
2023/05/31 06:37:39;;;;;;;;;;;;;;;16.42;40.41;98517.91;5048983;28;19930;-64
2023/05/31 06:40:09;;;;;;;;;;;;;;;16.44;39.80;98515.59;5050614;28;19920;-64
2023/05/31 06:42:48;;;;;;;;;;;;;;;16.56;40.89;98515.66;5049783;28;19925;-64
2023/05/31 06:45:35;;;;;;;;;;;;;;;16.56;40.01;98514.84;5046690;28;20293;-64
2023/05/31 06:48:52;;;;;;;;;;;;;;;16.56;39.61;98512.91;5110550;27;19919;-64
2023/05/31 06:51:50;;;;;;;;;;;;;;;16.68;39.26;98515.72;5129575;27;19930;-64
2023/05/31 06:54:39;;;;;;;;;;;;;;;16.75;39.33;98516.00;5115992;27;20303;-64
2023/05/31 06:57:39;;;;;;;;;;;;;;;16.99;39.37;98517.22;5126436;27;19926;-64
2023/05/31 07:04:08;;;;;;;;;;;;;;;;;;;;;
2023/05/31 07:06:56;;;;;;;;;;;;;;;17.25;38.24;98504.03;5124851;27;19923;-64
2023/05/31 07:10:00;;;;;;;;;;;;;;;17.32;38.21;98503.47;5115015;27;19955;-64
2023/05/31 07:16:37;;;;;;;;;;;;;;;17.59;37.49;98507.50;5077722;28;19932;-63
2023/05/31 07:19:18;;;;;;;;;;;;;;;17.51;37.11;98511.16;5065610;28;20432;-64
2023/05/31 07:22:16;;;;;;;;;;;;;;;17.70;36.78;98508.66;5086149;28;19935;-64
2023/05/31 07:25:04;;;;;;;;;;;;;;;17.80;37.15;98512.94;5066747;28;20011;-64
2023/05/31 07:28:23;;;;;;;;;;;;;;;17.93;36.17;98500.75;5028259;28;20391;-64
2023/05/31 07:31:15;;;;;;;;;;;;;;;17.98;36.21;98499.72;4996804;28;20383;-65
2023/05/31 07:34:01;;;;;;;;;;;;;;;;;;;;;
2023/05/31 07:36:32;;;;;;;;;;;;;;;18.25;34.89;98482.47;5085200;28;19920;-64
2023/05/31 07:42:49;;;;;;;;;;;;;;;18.15;35.15;98490.41;5089919;28;20094;-64
2023/05/31 07:45:28;;;;;;;;;;;;;;;18.26;34.54;98481.34;5089982;28;20391;-65
2023/05/31 07:47:59;;;;;;;;;;;;;;;18.43;35.67;98484.94;5116385;27;20030;-62
2023/05/31 07:51:14;;;;;;;;;;;;;;;18.53;34.55;98489.97;5117339;27;20025;-63
2023/05/31 07:53:45;;;;;;;;;;;;;;;18.35;34.15;98488.66;5117784;27;19923;-63
2023/05/31 07:56:26;;;;;;;;;;;;;;;18.66;34.40;98482.47;5125518;27;19923;-64
2023/05/31 07:59:16;;;;;;;;;;;;;;;18.71;33.43;98490.50;5132840;27;19919;-64
2023/05/31 08:01:46;;;;;;;;;;;;;;;18.75;33.83;98483.13;5115662;27;19920;-64
2023/05/31 08:04:30;;;;;;;;;;;;;;;18.73;33.74;98482.69;5121124;27;19924;-64
2023/05/31 08:10:22;;;;;;;;;;;;;;;18.83;33.54;98474.72;5117333;27;19919;-63
2023/05/31 08:14:04;;;;;;;;;;;;;;;18.98;33.10;98472.38;5122246;27;19920;-66
2023/05/31 08:16:36;;;;;;;;;;;;;;;19.19;33.02;98470.16;5117530;27;19951;-66
2023/05/31 08:19:21;;;;;;;;;;;;;;;19.36;32.36;98469.81;5129975;27;19923;-66
2023/05/31 08:22:27;;;;;;;;;;;;;;;19.25;32.46;98470.72;5135917;27;19999;-65
2023/05/31 08:25:31;;;;;;;;;;;;;;;19.14;32.21;98464.91;5141236;27;20273;-65
2023/05/31 08:27:59;;;;;;;;;;;;;;;19.28;32.77;98467.22;5133146;27;19919;-65
2023/05/31 08:30:27;;;;;;;;;;;;;;;19.14;32.38;98464.91;5124994;27;19976;-65
2023/05/31 08:33:33;;;;;;;;;;;;;;;19.25;32.30;98476.22;5153714;27;19920;-65
2023/05/31 08:37:11;;;;;;;;;;;;;;;19.33;31.61;98465.03;5144772;27;20010;-65
2023/05/31 08:39:44;;;;;;;;;;;;;;;19.61;32.20;98451.16;5074079;28;19947;-65
2023/05/31 08:42:25;;;;;;;;;;;;;;;19.73;32.06;98464.03;5087732;27;20322;-65
2023/05/31 08:44:55;;;;;;;;;;;;;;;19.64;31.26;98457.91;5125413;27;19988;-64
2023/05/31 08:47:46;;;;;;;;;;;;;;;19.54;30.77;98455.66;5132659;27;20444;-64
2023/05/31 08:50:19;;;;;;;;;;;;;;;19.56;29.80;98459.69;5135129;27;19920;-65
2023/05/31 08:53:26;;;;;;;;;;;;;;;19.60;30.48;98451.50;5102344;28;19923;-65
2023/05/31 08:56:14;;;;;;;;;;;;;;;19.69;30.46;98454.88;5087200;28;19924;-64
2023/05/31 09:02:00;;;;;;;;;;;;;;;20.03;30.57;98463.53;5110245;27;20404;-65
2023/05/31 09:05:41;;;;;;;;;;;;;;;19.88;29.40;98456.91;5128473;27;19920;-65
2023/05/31 09:08:14;;;;;;;;;;;;;;;19.67;29.65;98450.91;5096453;27;19926;-65
2023/05/31 09:11:18;;;;;;;;;;;;;;;19.91;29.70;98449.84;5123438;27;19919;-65
2023/05/31 09:17:28;;;;;;;;;;;;;;;20.13;29.85;98446.41;5050597;28;19927;-66
2023/05/31 09:23:20;;;;;;;;;;;;;;;20.11;30.59;98440.44;5064224;28;19920;-66
2023/05/31 09:26:32;;;;;;;;;;;;;;;20.15;30.67;98435.81;5067055;28;20993;-62
2023/05/31 09:29:07;;;;;;;;;;;;;;;20.17;29.94;98438.22;5076150;28;20327;-64
2023/05/31 09:31:41;;;;;;;;;;;;;;;20.11;29.89;98434.94;5072552;28;19920;-64
2023/05/31 09:34:23;;;;;;;;;;;;;;;20.30;31.47;98428.66;5056461;28;19928;-64
2023/05/31 09:37:05;;;;;;;;;;;;;;;20.29;30.74;98433.34;5068010;28;20388;-64
2023/05/31 09:39:35;;;;;;;;;;;;;;;20.46;29.99;98420.28;5068745;28;20385;-65
2023/05/31 09:42:12;;;;;;;;;;;;;;;20.41;30.50;98418.63;5068670;28;19942;-63
2023/05/31 09:50:26;;;;;;;;;;;;;;;20.66;31.09;98413.59;5018108;28;20011;-63
2023/05/31 09:53:37;;;;;;;;;;;;;;;20.64;29.41;98421.44;5024643;28;20455;-65
2023/05/31 09:56:26;;;;;;;;;;;;;;;20.41;29.14;98416.66;5113103;28;19919;-65
2023/05/31 09:58:59;;;;;;;;;;;;;;;20.50;29.36;98407.38;5105326;28;19928;-65
2023/05/31 10:01:27;;;;;;;;;;;;;;;20.71;28.72;98407.78;5117340;27;19994;-64
2023/05/31 10:04:00;;;;;;;;;;;;;;;20.84;28.91;98411.97;5115472;28;19920;-63
2023/05/31 10:07:11;;;;;;;;;;;;;;;20.87;30.00;98402.94;5113000;28;19920;-65
2023/05/31 10:12:42;;;;;;;;;;;;;;;21.00;30.13;98405.53;5082248;27;19972;-63
2023/05/31 10:15:43;;;;;;;;;;;;;;;20.89;30.46;98400.63;5113702;27;19923;-66
2023/05/31 10:19:28;;;;;;;;;;;;;;;21.06;29.71;98398.53;5120224;27;19927;-63
2023/05/31 10:22:18;;;;;;;;;;;;;;;21.19;30.30;98411.78;5130495;27;20294;-64
2023/05/31 10:24:52;;;;;;;;;;;;;;;21.22;28.86;98401.97;5133138;27;19920;-64
2023/05/31 10:27:33;;;;;;;;;;;;;;;21.00;28.37;98400.00;5147249;27;19930;-64
2023/05/31 10:30:42;;;;;;;;;;;;;;;21.09;28.19;98406.06;5149190;27;19962;-63
2023/05/31 10:33:43;;;;;;;;;;;;;;;21.21;28.57;98397.63;5066849;28;19933;-64
2023/05/31 10:37:03;;;;;;;;;;;;;;;21.30;27.39;98387.09;5104503;27;19942;-68
2023/05/31 10:40:00;;;;;;;;;;;;;;;21.28;28.17;98394.16;5141178;27;20352;-65
2023/05/31 10:43:24;;;;;;;;;;;;;;;21.35;27.90;98395.09;5092318;27;20382;-64
2023/05/31 10:46:34;;;;;;;;;;;;;;;21.29;27.74;98393.78;5138682;27;19919;-64
2023/05/31 10:49:13;;;;;;;;;;;;;;;21.43;27.69;98388.50;5149977;27;19922;-64
2023/05/31 10:51:50;;;;;;;;;;;;;;;21.35;28.08;98378.50;5145379;27;19919;-67
2023/05/31 10:54:29;;;;;;;;;;;;;;;21.46;27.87;98375.91;5141597;27;19988;-65
2023/05/31 10:57:41;;;;;;;;;;;;;;;21.42;28.23;98373.09;5140776;27;20009;-64
2023/05/31 11:00:23;;;;;;;;;;;;;;;21.53;28.38;98369.72;5146967;27;19919;-64
2023/05/31 11:10:25;;;;;;;;;;;;;;;21.90;26.56;98356.78;5138398;27;20015;-65
2023/05/31 11:13:04;;;;;;;;;;;;;;;21.94;26.38;98363.19;5116174;27;19998;-63
2023/05/31 11:15:54;;;;;;;;;;;;;;;21.90;26.28;98356.00;5145212;27;19919;-63
2023/05/31 11:19:13;;;;;;;;;;;;;;;21.95;25.83;98356.47;5145648;27;19934;-66
2023/05/31 11:22:14;;;;;;;;;;;;;;;22.14;25.71;98365.81;5050381;28;20014;-68
2023/05/31 11:25:02;;;;;;;;;;;;;;;22.13;25.62;98353.94;5074348;28;19942;-64
2023/05/31 11:27:49;;;;;;;;;;;;;;;22.11;25.60;98361.03;5103451;28;19924;-65
2023/05/31 11:30:28;;;;;;;;;;;;;;;22.14;26.68;98352.75;5103656;28;20371;-64
2023/05/31 11:33:23;;;;;;;;;;;;;;;22.15;26.04;98357.13;5106220;28;19932;-64
2023/05/31 11:36:07;;;;;;;;;;;;;;;22.14;26.13;98340.91;5104577;28;19920;-64
2023/05/31 11:38:42;;;;;;;;;;;;;;;22.10;26.04;98340.03;5106370;28;19919;-64
2023/05/31 11:47:18;;;;;;;;;;;;;;;22.34;26.88;98349.81;4977400;28;20382;-64
2023/05/31 11:49:51;;;;;;;;;;;;;;;22.40;26.38;98348.31;5069763;28;19931;-65
2023/05/31 11:52:47;;;;;;;;;;;;;;;22.28;26.79;98340.28;5045656;28;19967;-65
2023/05/31 11:55:32;;;;;;;;;;;;;;;22.10;26.93;98337.25;5066530;28;19928;-64
2023/05/31 11:58:28;;;;;;;;;;;;;;;22.23;27.24;98335.88;5063547;28;19920;-65
2023/05/31 12:01:01;;;;;;;;;;;;;;;22.32;26.85;98336.38;5003071;28;19921;-64
2023/05/31 12:03:50;;;;;;;;;;;;;;;;;;;;;
2023/05/31 12:06:28;;;;;;;;;;;;;;;22.47;27.66;98329.78;4974488;28;19931;-66
2023/05/31 12:12:15;;;;;;;;;;;;;;;22.34;27.63;98325.72;4950333;28;19923;-67
2023/05/31 12:14:55;;;;;;;;;;;;;;;22.39;27.82;98322.59;5011134;28;19948;-64
2023/05/31 12:17:43;;;;;;;;;;;;;;;22.22;27.64;98324.00;5027827;28;19971;-65
2023/05/31 12:24:05;;;;;;;;;;;;;;;22.43;27.71;98317.91;5018281;28;20021;-65
2023/05/31 12:27:40;;;;;;;;;;;;;;;22.58;27.55;98315.25;5027680;28;19956;-65
2023/05/31 12:30:29;;;;;;;;;;;;;;;22.43;27.34;98306.84;5025436;28;19929;-65
2023/05/31 12:33:13;;;;;;;;;;;;;;;22.67;27.02;98315.75;5013219;28;19987;-64
2023/05/31 12:39:21;;;;;;;;;;;;;;;22.72;26.23;98304.31;5115039;27;20031;-65
2023/05/31 12:42:08;;;;;;;;;;;;;;;22.67;25.84;98299.13;5096487;28;19927;-65
2023/05/31 12:44:48;;;;;;;;;;;;;;;22.73;24.64;98295.63;5095125;28;19927;-65
2023/05/31 12:47:16;;;;;;;;;;;;;;;22.79;25.26;98289.72;5102423;28;20292;-64
2023/05/31 12:50:11;;;;;;;;;;;;;;;22.85;25.34;98294.56;5088173;28;19920;-65
2023/05/31 12:55:47;;;;;;;;;;;;;;;23.00;24.69;98285.19;5011756;28;19921;-65
2023/05/31 12:58:35;;;;;;;;;;;;;;;22.93;24.89;98282.38;5001142;28;19983;-65
2023/05/31 13:01:27;;;;;;;;;;;;;;;22.93;25.21;98287.91;5099229;28;19965;-64
2023/05/31 13:04:10;;;;;;;;;;;;;;;23.01;24.47;98288.78;5101313;28;20022;-64
2023/05/31 13:06:38;;;;;;;;;;;;;;;22.88;24.95;98279.94;5102263;28;19932;-64
2023/05/31 13:09:33;;;;;;;;;;;;;;;22.98;24.50;98273.69;5099993;28;20272;-64
2023/05/31 13:15:40;;;;;;;;;;;;;;;23.08;24.61;98285.25;5090979;28;19920;-66
2023/05/31 13:22:47;;;;;;;;;;;;;;;23.08;24.24;98268.63;4997109;28;19931;-66
2023/05/31 13:25:39;;;;;;;;;;;;;;;22.95;23.54;98257.81;5003252;28;19921;-65
2023/05/31 13:28:49;;;;;;;;;;;;;;;23.14;23.27;98267.06;5001170;28;19932;-66
2023/05/31 13:31:37;;;;;;;;;;;;;;;22.95;23.40;98259.81;5003918;28;20076;-63
2023/05/31 13:34:17;;;;;;;;;;;;;;;23.12;24.07;98253.63;5007192;28;20448;-64
2023/05/31 13:36:53;;;;;;;;;;;;;;;23.20;24.38;98248.91;5006507;28;20020;-64
2023/05/31 13:39:27;;;;;;;;;;;;;;;23.28;24.78;98247.78;4996989;28;19926;-64
2023/05/31 13:42:04;;;;;;;;;;;;;;;23.21;25.42;98250.47;5008196;28;19921;-63
2023/05/31 13:44:35;;;;;;;;;;;;;;;23.23;24.82;98248.13;4993628;28;20061;-64
2023/05/31 13:50:38;;;;;;;;;;;;;;;23.18;24.86;98246.53;4947232;28;19960;-64
2023/05/31 13:53:19;;;;;;;;;;;;;;;23.34;24.16;98240.66;5000889;28;20265;-64
2023/05/31 14:03:57;;;;;;;;;;;;;;;23.34;24.68;98221.25;5012354;28;19920;-64
2023/05/31 14:06:53;;;;;;;;;;;;;;;;;;;;;
2023/05/31 14:09:46;;;;;;;;;;;;;;;23.42;23.27;98222.88;5012568;28;19924;-63
2023/05/31 14:12:35;;;;;;;;;;;;;;;23.50;23.22;98224.50;5048430;28;19933;-63
2023/05/31 14:15:36;;;;;;;;;;;;;;;23.58;23.27;98241.16;5091928;28;19928;-63
2023/05/31 14:18:46;;;;;;;;;;;;;;;23.52;24.31;98221.34;5095264;28;19988;-64
2023/05/31 14:21:44;;;;;;;;;;;;;;;23.50;23.54;98218.97;5102141;27;19932;-64
2023/05/31 14:24:51;;;;;;;;;;;;;;;23.74;23.47;98211.13;5144551;27;19971;-64
2023/05/31 14:27:48;;;;;;;;;;;;;;;23.81;22.56;98205.63;5131034;27;19924;-64
2023/05/31 14:30:48;;;;;;;;;;;;;;;23.72;22.92;98213.53;5138078;27;20167;-64
2023/05/31 14:33:44;;;;;;;;;;;;;;;23.79;22.77;98205.22;5119766;27;20364;-62
2023/05/31 14:46:33;;;;;;;;;;;;;;;;;;;;;
2023/05/31 15:02:22;;;;;;;;;;;;;;;23.97;23.74;98194.97;4926060;29;20325;-66
2023/05/31 15:04:51;;;;;;;;;;;;;;;23.81;23.66;98183.44;4926477;29;19923;-66
2023/05/31 15:07:19;;;;;;;;;;;;;;;23.89;24.00;98187.00;4932273;29;19930;-65
2023/05/31 15:09:47;;;;;;;;;;;;;;;23.81;23.73;98172.34;4924014;29;20338;-66
2023/05/31 15:12:15;;;;;;;;;;;;;;;23.93;24.47;98185.06;4924732;29;20281;-65
2023/05/31 15:14:42;;;;;;;;;;;;;;;24.03;24.46;98185.06;4924061;29;19966;-66
2023/05/31 15:17:10;;;;;;;;;;;;;;;24.13;24.79;98179.91;4990718;28;20295;-66
2023/05/31 15:19:40;;;;;;;;;;;;;;;24.19;23.24;98179.13;5010749;28;19921;-68
2023/05/31 15:22:08;;;;;;;;;;;;;;;24.21;23.34;98175.97;5009565;28;19925;-65
2023/05/31 15:24:37;;;;;;;;;;;;;;;24.19;23.57;98175.56;5047105;28;19967;-66
2023/05/31 15:27:05;;;;;;;;;;;;;;;24.14;23.68;98189.84;5088353;28;20410;-66
2023/05/31 15:29:33;;;;;;;;;;;;;;;24.05;23.39;98185.47;5109347;28;20365;-65
2023/05/31 15:32:03;;;;;;;;;;;;;;;24.17;23.58;98183.47;5100279;28;19990;-66
2023/05/31 15:34:31;;;;;;;;;;;;;;;24.19;24.25;98176.38;5100659;28;19920;-66
2023/05/31 15:37:00;;;;;;;;;;;;;;;24.08;23.57;98178.34;5096496;28;19969;-67
2023/05/31 15:39:28;;;;;;;;;;;;;;;24.14;23.13;98175.97;5102133;28;19959;-68
2023/05/31 15:41:56;;;;;;;;;;;;;;;24.12;23.63;98170.00;5106277;28;19932;-66
2023/05/31 15:44:26;;;;;;;;;;;;;;;24.13;23.77;98175.16;5104027;28;19920;-66
2023/05/31 15:46:54;;;;;;;;;;;;;;;24.11;23.92;98173.97;5106866;28;19921;-68
2023/05/31 15:49:21;;;;;;;;;;;;;;;24.03;23.64;98171.19;5112918;28;19927;-67
2023/05/31 15:51:49;;;;;;;;;;;;;;;24.03;22.95;98173.19;5108350;28;19927;-65
2023/05/31 15:54:18;;;;;;;;;;;;;;;24.03;23.33;98168.41;5112748;28;20317;-66
2023/05/31 15:56:46;;;;;;;;;;;;;;;24.00;22.08;98168.41;5101869;28;20338;-65
2023/05/31 15:59:14;;;;;;;;;;;;;;;24.07;22.61;98162.06;5106468;28;19920;-65
2023/05/31 16:01:42;;;;;;;;;;;;;;;24.17;22.67;98166.84;5100479;28;20022;-66
2023/05/31 16:04:10;;;;;;;;;;;;;;;23.94;23.19;98165.22;5096478;28;20361;-66
2023/05/31 16:06:38;;;;;;;;;;;;;;;24.03;22.32;98160.09;5108619;28;20253;-64
2023/05/31 16:09:06;;;;;;;;;;;;;;;23.99;23.15;98153.72;5099756;28;19964;-66
2023/05/31 16:11:35;;;;;;;;;;;;;;;24.11;23.11;98155.31;5103920;28;19970;-67
2023/05/31 16:14:03;;;;;;;;;;;;;;;24.06;23.32;98161.25;5096719;28;19948;-65
2023/05/31 16:16:33;;;;;;;;;;;;;;;24.01;23.68;98156.09;5104320;28;19949;-63
2023/05/31 16:19:01;;;;;;;;;;;;;;;24.11;24.05;98146.22;5095827;28;19920;-66
2023/05/31 16:21:31;;;;;;;;;;;;;;;24.09;23.17;98143.84;5107996;27;19927;-65
2023/05/31 16:23:59;;;;;;;;;;;;;;;24.13;22.47;98149.38;5143768;27;20022;-66
2023/05/31 16:26:27;;;;;;;;;;;;;;;24.01;22.70;98143.03;5147159;27;20026;-64
2023/05/31 16:28:56;;;;;;;;;;;;;;;24.11;22.80;98130.34;5143895;27;20007;-64
2023/05/31 16:31:24;;;;;;;;;;;;;;;24.11;22.63;98140.66;5142550;27;19923;-64
2023/05/31 16:33:52;;;;;;;;;;;;;;;24.15;22.62;98138.69;5143926;27;19923;-63
2023/05/31 16:36:20;;;;;;;;;;;;;;;23.85;22.90;98131.50;5144571;27;19931;-65
2023/05/31 16:38:48;;;;;;;;;;;;;;;23.95;22.54;98132.72;5139609;27;19938;-64
2023/05/31 16:41:16;;;;;;;;;;;;;;;23.93;22.61;98126.78;5146940;27;19919;-64
2023/05/31 16:43:44;;;;;;;;;;;;;;;23.97;22.78;98128.38;5143345;27;19968;-63
2023/05/31 16:46:14;;;;;;;;;;;;;;;23.90;22.79;98136.66;5148149;27;20264;-64
2023/05/31 16:48:41;;;;;;;;;;;;;;;23.89;22.98;98129.53;5145817;27;20446;-64
2023/05/31 16:51:09;;;;;;;;;;;;;;;23.90;23.01;98131.13;5142631;27;19962;-67
2023/05/31 16:53:37;;;;;;;;;;;;;;;23.95;22.88;98118.84;5142404;27;20018;-66
2023/05/31 16:56:05;;;;;;;;;;;;;;;23.86;23.07;98118.41;5146499;27;20022;-65
2023/05/31 16:58:33;;;;;;;;;;;;;;;23.88;22.77;98129.94;5153308;27;19919;-66
2023/05/31 17:01:01;;;;;;;;;;;;;;;23.95;22.58;98130.72;5145160;27;20023;-65
2023/05/31 17:03:30;;;;;;;;;;;;;;;23.82;23.03;98129.53;5144200;27;19923;-64
2023/05/31 17:06:00;;;;;;;;;;;;;;;23.79;22.88;98130.31;5138836;27;19928;-66
2023/05/31 17:08:28;;;;;;;;;;;;;;;23.89;22.30;98131.53;5117917;27;19927;-65